Time;durP1;ratioP1;P1;durP2;ratioP2;P2;SDS_P1;SDS_P2;PMS_P1;PMS_P2;Temp;Humidity;BMP_temperature;BMP_pressure;BME280_temperature;BME280_humidity;BME280_pressure;Samples;Min_cycle;Max_cycle;Signal;HPM_P1;HPM_P2
2020/12/08 00:00:22;;;;;;;0.70;0.68;;;6.20;99.90;;;;;;4444959;32;20439;-57
2020/12/08 00:02:48;;;;;;;1.25;0.80;;;6.20;99.90;;;;;;4445181;32;20120;-57
2020/12/08 00:05:15;;;;;;;0.90;0.90;;;6.10;99.90;;;;;;4447610;32;20065;-54
2020/12/08 00:07:41;;;;;;;1.35;1.00;;;6.10;99.90;;;;;;4445884;32;20172;-53
2020/12/08 00:10:07;;;;;;;1.35;1.25;;;6.00;99.90;;;;;;4444625;32;20073;-52
2020/12/08 00:12:32;;;;;;;1.40;1.12;;;6.10;99.90;;;;;;4446256;32;20065;-56
2020/12/08 00:14:58;;;;;;;1.42;1.33;;;6.10;99.90;;;;;;4445238;32;20081;-51
2020/12/08 00:17:23;;;;;;;1.48;1.37;;;6.00;99.90;;;;;;4445411;32;20104;-54
2020/12/08 00:19:49;;;;;;;2.70;1.77;;;6.10;99.90;;;;;;4439736;32;20445;-53
2020/12/08 00:22:15;;;;;;;1.85;1.40;;;6.10;99.90;;;;;;4430833;32;20503;-54
2020/12/08 00:24:40;;;;;;;1.02;0.98;;;6.20;99.90;;;;;;4428345;32;20112;-56
2020/12/08 00:27:08;;;;;;;2.22;1.15;;;6.30;99.90;;;;;;4428849;32;20065;-54
2020/12/08 00:29:35;;;;;;;3.97;1.10;;;6.30;99.90;;;;;;4436123;32;20068;-56
2020/12/08 00:32:01;;;;;;;1.02;0.90;;;6.20;99.90;;;;;;4445943;32;20119;-56
2020/12/08 00:34:26;;;;;;;0.45;0.45;;;6.20;99.90;;;;;;4446659;32;20069;-55
2020/12/08 00:36:52;;;;;;;1.00;0.93;;;6.20;99.90;;;;;;4446654;32;20057;-52
2020/12/08 00:39:17;;;;;;;9.10;1.62;;;6.20;99.90;;;;;;4446252;32;20430;-56
2020/12/08 00:41:45;;;;;;;2.70;1.60;;;6.20;99.90;;;;;;4445528;32;20435;-56
2020/12/08 00:44:11;;;;;;;1.05;0.95;;;6.30;99.90;;;;;;4445189;32;20439;-51
2020/12/08 00:46:36;;;;;;;1.27;0.80;;;6.30;99.90;;;;;;4445836;32;20053;-52
2020/12/08 00:49:02;;;;;;;8.15;1.08;;;6.30;99.90;;;;;;4444920;32;20403;-56
2020/12/08 00:51:27;;;;;;;1.20;1.05;;;6.20;99.90;;;;;;4446023;32;20062;-54
2020/12/08 00:53:53;;;;;;;0.47;0.47;;;6.00;99.90;;;;;;4445775;32;20117;-56
2020/12/08 00:56:18;;;;;;;2.45;1.27;;;6.00;99.90;;;;;;4444368;32;20121;-55
2020/12/08 00:58:44;;;;;;;1.70;1.30;;;6.00;99.90;;;;;;4444343;32;20061;-53
2020/12/08 01:01:09;;;;;;;1.00;0.95;;;6.00;99.90;;;;;;4446001;32;20111;-55
2020/12/08 01:03:36;;;;;;;1.50;0.93;;;6.00;99.90;;;;;;4446026;32;20061;-54
2020/12/08 01:06:02;;;;;;;3.10;1.42;;;6.00;99.90;;;;;;4444674;32;20168;-55
2020/12/08 01:08:29;;;;;;;1.02;1.00;;;6.00;99.90;;;;;;4444903;32;20065;-55
2020/12/08 01:10:54;;;;;;;3.05;1.08;;;6.00;99.90;;;;;;4445262;32;20127;-55
2020/12/08 01:13:21;;;;;;;4.50;1.30;;;6.00;99.90;;;;;;4445282;32;20123;-56
2020/12/08 01:15:47;;;;;;;1.58;1.05;;;6.00;99.90;;;;;;4443997;32;20056;-53
2020/12/08 01:18:13;;;;;;;5.28;2.40;;;6.00;99.90;;;;;;4431242;32;20126;-55
2020/12/08 01:20:39;;;;;;;0.80;0.80;;;6.10;99.90;;;;;;4444458;32;20111;-50
2020/12/08 01:23:04;;;;;;;4.65;2.33;;;6.10;99.90;;;;;;4446979;32;20470;-54
2020/12/08 01:25:31;;;;;;;2.78;1.60;;;6.10;99.90;;;;;;4447895;32;20056;-55
2020/12/08 01:27:57;;;;;;;1.42;1.33;;;6.10;99.90;;;;;;4447672;32;20084;-52
2020/12/08 01:30:22;;;;;;;1.23;1.12;;;6.20;99.90;;;;;;4447659;32;20065;-51
2020/12/08 01:32:48;;;;;;;7.45;2.83;;;6.20;99.90;;;;;;4447864;32;20061;-54
2020/12/08 01:35:13;;;;;;;2.05;1.48;;;6.30;99.90;;;;;;4447181;32;20061;-55
2020/12/08 01:37:39;;;;;;;1.80;1.35;;;6.30;99.90;;;;;;4448659;32;20057;-53
2020/12/08 01:40:05;;;;;;;3.20;1.50;;;6.30;99.90;;;;;;4448484;32;20065;-55
2020/12/08 01:42:30;;;;;;;6.20;1.23;;;6.20;99.90;;;;;;4448071;32;20114;-52
2020/12/08 01:44:56;;;;;;;5.72;1.45;;;6.30;99.90;;;;;;4446619;32;20182;-53
2020/12/08 01:47:21;;;;;;;5.97;1.70;;;6.30;99.90;;;;;;4448477;32;20093;-53
2020/12/08 01:49:48;;;;;;;3.37;1.98;;;6.30;99.90;;;;;;4447326;32;20055;-56
2020/12/08 01:52:15;;;;;;;0.88;0.88;;;6.30;99.90;;;;;;4447225;32;20061;-54
2020/12/08 01:54:42;;;;;;;5.60;1.58;;;6.20;99.90;;;;;;4446798;32;20558;-56
2020/12/08 01:57:08;;;;;;;20.02;1.65;;;6.20;99.90;;;;;;4446317;32;20072;-52
2020/12/08 01:59:33;;;;;;;2.33;1.52;;;6.30;99.90;;;;;;4447843;32;20056;-55
2020/12/08 02:01:59;;;;;;;0.93;0.93;;;6.40;99.90;;;;;;4448027;32;20164;-55
2020/12/08 02:04:24;;;;;;;1.25;1.17;;;6.40;99.90;;;;;;4448218;32;20657;-55
2020/12/08 02:06:50;;;;;;;2.83;1.40;;;6.30;99.90;;;;;;4447103;32;20077;-52
2020/12/08 02:09:15;;;;;;;1.80;1.70;;;6.40;99.90;;;;;;4445888;32;20527;-55
2020/12/08 02:11:41;;;;;;;1.25;1.15;;;6.30;99.90;;;;;;4447823;32;20065;-54
2020/12/08 02:14:06;;;;;;;6.70;2.17;;;6.30;99.90;;;;;;4448021;32;20072;-52
2020/12/08 02:16:32;;;;;;;9.32;2.72;;;6.30;99.90;;;;;;4447603;32;20060;-55
2020/12/08 02:18:57;;;;;;;11.70;1.05;;;6.30;99.90;;;;;;4447131;32;20077;-56
2020/12/08 02:21:30;;;;;;;1.65;1.52;;;6.30;99.90;;;;;;4447890;32;20069;-55
2020/12/08 02:23:56;;;;;;;4.78;2.15;;;6.30;99.90;;;;;;4433333;32;20058;-53
2020/12/08 02:26:21;;;;;;;0.88;0.88;;;6.30;99.90;;;;;;4445769;32;20077;-55
2020/12/08 02:28:47;;;;;;;1.92;1.52;;;6.30;99.90;;;;;;4447424;32;20060;-55
2020/12/08 02:31:12;;;;;;;2.92;1.62;;;6.30;99.90;;;;;;4446461;32;20061;-51
2020/12/08 02:33:38;;;;;;;2.67;1.87;;;6.30;99.90;;;;;;4445726;32;20068;-51
2020/12/08 02:36:03;;;;;;;1.95;1.55;;;6.30;99.90;;;;;;4447566;32;20065;-53
2020/12/08 02:38:29;;;;;;;1.20;1.15;;;6.20;99.90;;;;;;4446912;32;20056;-56
2020/12/08 02:40:55;;;;;;;1.27;1.17;;;6.20;99.90;;;;;;4446873;32;20077;-55
2020/12/08 02:43:21;;;;;;;3.85;2.22;;;6.30;99.90;;;;;;4446152;32;20056;-55
2020/12/08 02:45:47;;;;;;;2.83;1.42;;;6.30;99.90;;;;;;4447847;32;20531;-54
2020/12/08 02:48:13;;;;;;;3.12;1.90;;;6.20;99.90;;;;;;4446963;32;20061;-54
2020/12/08 02:50:39;;;;;;;9.30;2.92;;;6.30;99.90;;;;;;4446521;32;20077;-56
2020/12/08 02:53:04;;;;;;;29.40;4.95;;;6.40;99.90;;;;;;4446589;32;20113;-52
2020/12/08 02:55:30;;;;;;;4.20;2.35;;;6.30;99.90;;;;;;4446042;32;20510;-54
2020/12/08 02:57:56;;;;;;;1.23;1.12;;;6.20;99.90;;;;;;4445842;32;20053;-53
2020/12/08 03:00:22;;;;;;;8.20;1.27;;;6.30;99.90;;;;;;4445976;32;20086;-53
2020/12/08 03:02:47;;;;;;;7.45;2.55;;;6.30;99.90;;;;;;4447296;32;20503;-56
2020/12/08 03:05:13;;;;;;;4.82;2.75;;;6.30;99.90;;;;;;4446688;32;20056;-54
2020/12/08 03:07:39;;;;;;;3.37;1.65;;;6.30;99.90;;;;;;4445224;32;20060;-56
2020/12/08 03:10:06;;;;;;;6.12;2.92;;;6.30;99.90;;;;;;4444908;32;20068;-52
2020/12/08 03:12:32;;;;;;;1.42;1.02;;;6.30;99.90;;;;;;4445536;32;20506;-55
2020/12/08 03:14:57;;;;;;;4.15;1.48;;;6.30;99.90;;;;;;4445142;32;20077;-56
2020/12/08 03:17:23;;;;;;;1.67;1.37;;;6.30;99.90;;;;;;4432747;32;20069;-54
2020/12/08 03:19:50;;;;;;;2.03;1.42;;;6.20;99.90;;;;;;4446367;32;20069;-55
2020/12/08 03:22:15;;;;;;;3.65;2.65;;;6.20;99.90;;;;;;4447437;32;20393;-56
2020/12/08 03:24:41;;;;;;;2.28;1.23;;;6.30;99.90;;;;;;4445762;32;20065;-52
2020/12/08 03:27:06;;;;;;;2.83;2.20;;;6.20;99.90;;;;;;4445277;32;20085;-55
2020/12/08 03:29:32;;;;;;;3.35;1.98;;;6.20;99.90;;;;;;4446443;32;20077;-54
2020/12/08 03:31:57;;;;;;;3.85;2.35;;;6.30;99.90;;;;;;4445851;32;20069;-51
2020/12/08 03:34:23;;;;;;;12.45;3.72;;;6.30;99.90;;;;;;4446960;32;20056;-52
2020/12/08 03:36:48;;;;;;;1.90;1.75;;;6.20;99.90;;;;;;4445876;32;20072;-55
2020/12/08 03:39:16;;;;;;;15.95;5.20;;;6.30;99.90;;;;;;4446604;32;20065;-55
2020/12/08 03:41:42;;;;;;;3.80;2.25;;;6.30;99.90;;;;;;4444990;32;20120;-56
2020/12/08 03:44:07;;;;;;;1.23;1.00;;;6.30;99.90;;;;;;4444927;32;20061;-53
2020/12/08 03:46:33;;;;;;;3.12;1.50;;;6.20;99.90;;;;;;4445840;32;20119;-56
2020/12/08 03:48:58;;;;;;;5.93;2.20;;;6.20;99.90;;;;;;4445149;32;20057;-54
2020/12/08 03:51:23;;;;;;;4.97;1.92;;;6.20;99.90;;;;;;4447250;32;20065;-52
2020/12/08 03:53:49;;;;;;;3.72;2.15;;;6.30;99.90;;;;;;4446042;32;20107;-51
2020/12/08 03:56:17;;;;;;;12.10;2.28;;;6.30;99.90;;;;;;4444028;32;20533;-51
2020/12/08 03:58:42;;;;;;;10.00;3.00;;;6.30;99.90;;;;;;4445458;32;20078;-56
2020/12/08 04:01:14;;;;;;;1.95;1.12;;;6.30;99.90;;;;;;4445920;32;20081;-56
2020/12/08 04:03:41;;;;;;;1.45;1.35;;;6.30;99.90;;;;;;4446446;32;20064;-56
2020/12/08 04:06:06;;;;;;;2.25;1.50;;;6.30;99.90;;;;;;4447055;32;20065;-54
2020/12/08 04:08:32;;;;;;;1.35;1.12;;;6.40;99.90;;;;;;4444631;32;20130;-55
2020/12/08 04:10:57;;;;;;;41.20;3.08;;;6.40;99.90;;;;;;4446885;32;20127;-54
2020/12/08 04:13:23;;;;;;;4.22;2.05;;;6.40;99.90;;;;;;4446047;32;20404;-56
2020/12/08 04:15:49;;;;;;;2.12;1.58;;;6.30;99.90;;;;;;4445383;32;20057;-55
2020/12/08 04:18:15;;;;;;;13.27;2.08;;;6.30;99.90;;;;;;4445942;32;20189;-56
2020/12/08 04:20:42;;;;;;;2.75;1.58;;;6.30;99.90;;;;;;4445006;32;20094;-54
2020/12/08 04:23:11;;;;;;;2.30;2.10;;;6.30;99.90;;;;;;4445862;32;20073;-56
2020/12/08 04:25:37;;;;;;;1.92;1.67;;;6.20;99.90;;;;;;4431681;32;20076;-55
2020/12/08 04:28:03;;;;;;;6.37;2.78;;;6.30;99.90;;;;;;4444407;32;20120;-53
2020/12/08 04:30:28;;;;;;;5.62;2.62;;;6.30;99.90;;;;;;4445059;32;20061;-56
2020/12/08 04:32:54;;;;;;;2.25;1.67;;;6.30;99.90;;;;;;4446505;32;20061;-56
2020/12/08 04:35:19;;;;;;;7.03;3.37;;;6.30;99.90;;;;;;4446511;32;20437;-55
2020/12/08 04:37:45;;;;;;;3.42;2.22;;;6.30;99.90;;;;;;4445303;32;20078;-57
2020/12/08 04:40:10;;;;;;;2.10;1.20;;;6.30;99.90;;;;;;4445246;32;20129;-53
2020/12/08 04:42:45;;;;;;;3.72;2.03;;;6.30;99.90;;;;;;4446641;32;20056;-54
2020/12/08 04:45:11;;;;;;;13.30;2.67;;;6.30;99.90;;;;;;4431326;32;20064;-57
2020/12/08 04:47:38;;;;;;;4.50;2.17;;;6.30;99.90;;;;;;4446220;32;20056;-56
2020/12/08 04:50:03;;;;;;;3.42;2.42;;;6.30;99.90;;;;;;4445507;32;20458;-55
2020/12/08 04:52:29;;;;;;;4.00;2.33;;;6.30;99.90;;;;;;4444525;32;20132;-54
2020/12/08 04:54:54;;;;;;;12.13;2.75;;;6.30;99.90;;;;;;4445145;32;20502;-57
2020/12/08 04:57:23;;;;;;;3.75;2.00;;;6.30;99.90;;;;;;4446874;32;20112;-56
2020/12/08 04:59:48;;;;;;;4.75;2.85;;;6.30;99.90;;;;;;4447074;32;20069;-57
2020/12/08 05:02:14;;;;;;;1.80;1.50;;;6.30;99.90;;;;;;4449260;32;20123;-55
2020/12/08 05:04:39;;;;;;;3.87;1.30;;;6.40;99.90;;;;;;4448796;32;20522;-57
2020/12/08 05:07:06;;;;;;;3.17;2.00;;;6.40;99.90;;;;;;4449014;32;20053;-56
2020/12/08 05:09:42;;;;;;;4.95;1.87;;;6.40;99.90;;;;;;4448174;32;20072;-57
2020/12/08 05:12:08;;;;;;;9.18;1.75;;;6.40;99.90;;;;;;4448949;32;20073;-56
2020/12/08 05:14:41;;;;;;;1.65;1.55;;;6.40;99.90;;;;;;4448102;32;20513;-56
2020/12/08 05:17:07;;;;;;;2.75;1.70;;;6.40;99.90;;;;;;4448801;32;20053;-55
2020/12/08 05:19:33;;;;;;;5.45;2.92;;;6.40;99.90;;;;;;4449170;32;20436;-54
2020/12/08 05:21:59;;;;;;;4.22;2.37;;;6.40;99.90;;;;;;4445191;32;20503;-57
2020/12/08 05:24:30;;;;;;;8.50;1.85;;;6.50;99.90;;;;;;4432902;32;20077;-53
2020/12/08 05:26:58;;;;;;;7.78;2.87;;;6.40;99.90;;;;;;4436824;32;20061;-56
2020/12/08 05:29:24;;;;;;;1.55;1.45;;;6.40;99.90;;;;;;4442656;32;20502;-57
2020/12/08 05:31:50;;;;;;;5.70;2.08;;;6.30;99.90;;;;;;4444477;32;20131;-51
2020/12/08 05:34:21;;;;;;;2.47;2.28;;;6.30;99.90;;;;;;4445460;32;20060;-57
2020/12/08 05:36:49;;;;;;;1.65;1.55;;;6.40;99.90;;;;;;4433507;32;20061;-55
2020/12/08 05:39:18;;;;;;;3.15;1.87;;;6.40;99.90;;;;;;4446989;32;20530;-55
2020/12/08 05:41:45;;;;;;;6.65;2.00;;;6.40;99.90;;;;;;4447472;32;20061;-56
2020/12/08 05:44:16;;;;;;;11.75;2.90;;;6.40;99.90;;;;;;4446883;32;20077;-56
2020/12/08 05:46:43;;;;;;;2.00;1.62;;;6.40;99.90;;;;;;4448624;32;20069;-56
2020/12/08 05:49:11;;;;;;;3.20;2.33;;;6.40;99.90;;;;;;4433733;32;20089;-55
2020/12/08 05:51:46;;;;;;;1.83;1.65;;;6.40;99.90;;;;;;4448848;32;20054;-55
2020/12/08 05:54:14;;;;;;;2.40;1.92;;;6.40;99.90;;;;;;4448545;32;20077;-57
2020/12/08 05:56:40;;;;;;;7.57;2.65;;;6.40;99.90;;;;;;4451263;32;20065;-55
2020/12/08 05:59:05;;;;;;;18.60;2.28;;;6.30;99.90;;;;;;4434779;32;20878;-56
2020/12/08 06:01:31;;;;;;;3.92;1.75;;;6.30;99.90;;;;;;4441547;32;20148;-57
2020/12/08 06:03:56;;;;;;;4.37;1.75;;;6.30;99.90;;;;;;4435290;32;20080;-57
2020/12/08 06:06:22;;;;;;;3.22;1.58;;;6.30;99.90;;;;;;4438076;32;20077;-54
2020/12/08 06:08:48;;;;;;;2.42;1.58;;;6.40;99.90;;;;;;4443074;32;20506;-56
2020/12/08 06:11:15;;;;;;;3.95;1.90;;;6.40;99.90;;;;;;4445096;32;20065;-55
2020/12/08 06:13:46;;;;;;;4.20;1.55;;;6.40;99.90;;;;;;4441573;32;20500;-56
2020/12/08 06:16:15;;;;;;;2.92;1.40;;;6.40;99.90;;;;;;4443368;32;20061;-55
2020/12/08 06:18:40;;;;;;;2.33;1.62;;;6.40;99.90;;;;;;4416530;32;20400;-57
2020/12/08 06:21:27;;;;;;;4.35;2.83;;;6.40;99.90;;;;;;4432013;32;20109;-53
2020/12/08 06:23:55;;;;;;;1.95;1.67;;;6.40;99.90;;;;;;4435618;32;20064;-54
2020/12/08 06:26:33;;;;;;;6.68;3.40;;;6.40;99.90;;;;;;4442226;32;20061;-56
2020/12/08 06:29:06;;;;;;;5.53;2.45;;;6.40;99.90;;;;;;4440297;32;20081;-55
2020/12/08 06:31:41;;;;;;;2.20;1.70;;;6.50;99.90;;;;;;4413937;32;21390;-58
2020/12/08 06:34:07;;;;;;;4.47;2.75;;;6.40;99.90;;;;;;4419254;32;21030;-54
2020/12/08 06:36:32;;;;;;;17.35;2.72;;;6.30;99.90;;;;;;4435625;32;20060;-56
2020/12/08 06:38:59;;;;;;;1.95;1.60;;;6.30;99.90;;;;;;4437628;32;20126;-57
2020/12/08 06:41:34;;;;;;;2.65;1.85;;;6.30;99.90;;;;;;4441713;32;20198;-55
2020/12/08 06:44:01;;;;;;;6.30;2.30;;;6.40;99.90;;;;;;4438297;32;20391;-57
2020/12/08 06:46:27;;;;;;;4.53;3.12;;;6.30;99.90;;;;;;4438430;32;20415;-54
2020/12/08 06:49:08;;;;;;;2.58;2.37;;;6.20;99.90;;;;;;4435401;32;20134;-57
2020/12/08 06:51:35;;;;;;;2.90;1.62;;;6.20;99.90;;;;;;4433589;32;20057;-57
2020/12/08 06:54:16;;;;;;;10.23;2.83;;;6.30;99.90;;;;;;4436426;32;20248;-57
2020/12/08 06:56:41;;;;;;;1.77;1.58;;;6.20;99.90;;;;;;4435797;32;20077;-57
2020/12/08 06:59:07;;;;;;;18.05;2.12;;;6.20;99.90;;;;;;4432946;32;20077;-56
2020/12/08 07:01:32;;;;;;;7.05;2.08;;;6.30;99.90;;;;;;4440872;32;20557;-58
2020/12/08 07:03:59;;;;;;;3.80;2.25;;;6.30;99.90;;;;;;4436415;32;20131;-56
2020/12/08 07:06:26;;;;;;;1.70;1.12;;;6.30;99.90;;;;;;4438493;32;20066;-56
2020/12/08 07:08:52;;;;;;;5.22;2.37;;;6.30;99.90;;;;;;4441417;32;20521;-57
2020/12/08 07:11:19;;;;;;;6.12;1.75;;;6.30;99.90;;;;;;4441783;32;20073;-56
2020/12/08 07:14:05;;;;;;;4.32;2.25;;;6.30;99.90;;;;;;4439688;32;20154;-57
2020/12/08 07:16:33;;;;;;;5.43;2.20;;;6.20;99.90;;;;;;4429229;32;20068;-58
2020/12/08 07:19:00;;;;;;;1.62;1.30;;;6.20;99.90;;;;;;4437183;32;20064;-58
2020/12/08 07:21:26;;;;;;;2.83;2.03;;;6.20;99.90;;;;;;4440755;32;20054;-58
2020/12/08 07:23:53;;;;;;;7.65;2.75;;;6.20;99.90;;;;;;4443336;32;20097;-55
2020/12/08 07:26:23;;;;;;;18.87;2.30;;;6.30;99.90;;;;;;4437482;32;20461;-57
2020/12/08 07:28:49;;;;;;;3.87;2.45;;;6.30;99.90;;;;;;4441021;32;20483;-56
2020/12/08 07:31:24;;;;;;;2.17;1.73;;;6.30;99.90;;;;;;4439324;32;20102;-54
2020/12/08 07:33:51;;;;;;;2.90;1.55;;;6.30;99.90;;;;;;4427955;32;20266;-56
2020/12/08 07:36:21;;;;;;;10.32;2.80;;;6.40;99.90;;;;;;4440832;32;20068;-57
2020/12/08 07:38:50;;;;;;;10.63;4.53;;;6.40;99.90;;;;;;4438976;32;20082;-54
2020/12/08 07:41:17;;;;;;;2.17;1.75;;;6.30;99.90;;;;;;4443800;32;20094;-58
2020/12/08 07:43:42;;;;;;;3.65;2.17;;;6.40;99.90;;;;;;4438117;32;20070;-57
2020/12/08 07:46:08;;;;;;;14.20;3.12;;;6.30;99.90;;;;;;4440607;32;20134;-55
2020/12/08 07:48:34;;;;;;;5.53;2.55;;;6.40;99.90;;;;;;4440584;32;20057;-57
2020/12/08 07:51:00;;;;;;;7.28;3.65;;;6.50;99.90;;;;;;4442816;32;20064;-58
2020/12/08 07:53:35;;;;;;;10.68;4.47;;;6.60;99.90;;;;;;4440865;32;20584;-56
2020/12/08 07:56:01;;;;;;;4.20;2.20;;;6.60;99.90;;;;;;4438930;32;20077;-56
2020/12/08 07:58:26;;;;;;;5.65;3.60;;;6.50;99.90;;;;;;4441354;32;20493;-58
2020/12/08 08:00:51;;;;;;;4.10;2.53;;;6.50;99.90;;;;;;4439753;32;20130;-56
2020/12/08 08:03:17;;;;;;;3.35;1.15;;;6.50;99.90;;;;;;4439300;32;20391;-58
2020/12/08 08:05:43;;;;;;;3.92;2.70;;;6.50;99.90;;;;;;4435479;32;20093;-56
2020/12/08 08:08:08;;;;;;;3.47;2.25;;;6.50;99.90;;;;;;4439520;32;20380;-54
2020/12/08 08:10:33;;;;;;;3.45;2.40;;;6.60;99.90;;;;;;4436109;32;20077;-56
2020/12/08 08:12:59;;;;;;;1.58;1.48;;;6.50;99.90;;;;;;4430229;32;20082;-57
2020/12/08 08:15:24;;;;;;;10.90;3.72;;;6.50;99.90;;;;;;4442245;32;20509;-56
2020/12/08 08:17:50;;;;;;;3.35;2.22;;;6.40;99.90;;;;;;4432678;32;20065;-57
2020/12/08 08:20:15;;;;;;;3.33;2.42;;;6.50;99.90;;;;;;4438540;32;20089;-56
2020/12/08 08:22:41;;;;;;;2.47;1.87;;;6.60;99.90;;;;;;4437256;32;20085;-58
2020/12/08 08:25:06;;;;;;;4.47;3.00;;;6.50;99.90;;;;;;4431506;32;20085;-57
2020/12/08 08:27:32;;;;;;;4.22;1.67;;;6.70;99.90;;;;;;4437152;32;20550;-58
2020/12/08 08:29:57;;;;;;;2.72;1.73;;;6.80;99.90;;;;;;4437121;32;20084;-56
2020/12/08 08:32:23;;;;;;;12.10;2.67;;;6.80;99.90;;;;;;4436936;32;20334;-55
2020/12/08 08:34:48;;;;;;;20.40;2.85;;;6.70;99.90;;;;;;4434277;32;20065;-55
2020/12/08 08:37:15;;;;;;;6.75;2.50;;;6.70;99.90;;;;;;4437686;32;20461;-54
2020/12/08 08:39:40;;;;;;;9.05;2.40;;;6.70;99.90;;;;;;4433737;32;76935;-58
2020/12/08 08:42:06;;;;;;;1.00;0.98;;;6.70;99.90;;;;;;4439419;32;20076;-55
2020/12/08 08:44:31;;;;;;;10.68;4.05;;;6.70;99.90;;;;;;4437651;32;20602;-55
2020/12/08 08:46:57;;;;;;;4.65;2.20;;;6.60;99.90;;;;;;4438567;32;20088;-56
2020/12/08 08:49:22;;;;;;;3.75;2.75;;;6.80;99.90;;;;;;4438149;32;20069;-57
2020/12/08 08:51:48;;;;;;;5.87;2.10;;;6.80;99.90;;;;;;4431517;32;20070;-56
2020/12/08 08:54:16;;;;;;;1.52;1.42;;;6.80;99.90;;;;;;4430221;32;20310;-57
2020/12/08 08:56:41;;;;;;;3.45;2.10;;;6.70;99.90;;;;;;4418204;32;20077;-57
2020/12/08 08:59:07;;;;;;;1.67;1.30;;;6.70;99.90;;;;;;4431843;32;20149;-56
2020/12/08 09:01:34;;;;;;;8.02;2.85;;;6.70;99.90;;;;;;4431822;32;20130;-58
2020/12/08 09:03:59;;;;;;;2.50;2.08;;;6.70;99.90;;;;;;4422491;32;20085;-58
2020/12/08 09:06:25;;;;;;;2.40;1.98;;;6.70;99.90;;;;;;4436229;32;20068;-58
2020/12/08 09:08:51;;;;;;;2.97;1.50;;;6.70;99.90;;;;;;4438410;32;20076;-57
2020/12/08 09:11:16;;;;;;;5.75;2.22;;;6.70;99.90;;;;;;4434717;32;20062;-58
2020/12/08 09:13:42;;;;;;;2.72;2.20;;;6.70;99.90;;;;;;4428022;32;20507;-57
2020/12/08 09:16:08;;;;;;;7.97;2.50;;;6.70;99.90;;;;;;4437911;32;20073;-57
2020/12/08 09:18:34;;;;;;;2.17;1.80;;;6.80;99.90;;;;;;4437422;32;20486;-54
2020/12/08 09:20:59;;;;;;;1.95;1.73;;;6.90;99.90;;;;;;4436942;32;20089;-58
2020/12/08 09:23:25;;;;;;;4.43;2.75;;;6.80;99.90;;;;;;4438583;32;20081;-58
2020/12/08 09:25:53;;;;;;;8.25;2.72;;;7.00;99.90;;;;;;4432468;32;20101;-58
2020/12/08 09:28:19;;;;;;;2.28;1.75;;;7.10;99.90;;;;;;4432759;32;20526;-58
2020/12/08 09:30:45;;;;;;;4.95;2.85;;;7.10;99.90;;;;;;4436390;32;20425;-57
2020/12/08 09:33:10;;;;;;;7.85;2.05;;;7.10;99.90;;;;;;4433270;32;20061;-57
2020/12/08 09:35:36;;;;;;;3.92;2.05;;;7.10;99.90;;;;;;4432931;32;20065;-56
2020/12/08 09:38:02;;;;;;;2.95;2.08;;;7.10;99.90;;;;;;4437628;32;20089;-56
2020/12/08 09:40:27;;;;;;;8.30;2.10;;;7.10;99.90;;;;;;4437039;32;20085;-58
2020/12/08 09:42:53;;;;;;;2.53;1.70;;;7.10;99.90;;;;;;4440602;32;20073;-53
2020/12/08 09:45:18;;;;;;;7.78;2.20;;;7.10;99.90;;;;;;4440085;32;20065;-56
2020/12/08 09:47:44;;;;;;;3.58;2.12;;;7.20;99.90;;;;;;4439314;32;20072;-58
2020/12/08 09:50:10;;;;;;;5.45;2.45;;;7.20;99.90;;;;;;4441094;32;20073;-53
2020/12/08 09:52:36;;;;;;;3.90;1.80;;;7.40;99.90;;;;;;4435824;32;20078;-56
2020/12/08 09:55:03;;;;;;;2.37;1.52;;;7.40;99.90;;;;;;4438495;32;20065;-56
2020/12/08 09:57:28;;;;;;;7.82;2.50;;;7.40;99.90;;;;;;4436781;32;20129;-57
2020/12/08 09:59:54;;;;;;;4.15;3.10;;;7.40;99.90;;;;;;4439023;32;20108;-55
2020/12/08 10:02:20;;;;;;;6.07;2.75;;;7.50;99.90;;;;;;4436975;32;20077;-58
2020/12/08 10:04:46;;;;;;;9.38;2.90;;;7.50;99.90;;;;;;4437378;32;20057;-59
2020/12/08 10:07:15;;;;;;;18.00;3.12;;;7.60;99.90;;;;;;4439728;32;20085;-58
2020/12/08 10:09:42;;;;;;;6.85;2.50;;;7.80;99.90;;;;;;4438351;32;20065;-56
2020/12/08 10:12:08;;;;;;;15.73;3.47;;;7.90;99.90;;;;;;4438155;32;20121;-57
2020/12/08 10:14:34;;;;;;;5.35;2.37;;;7.80;99.90;;;;;;4436903;32;20559;-56
2020/12/08 10:16:59;;;;;;;3.10;2.45;;;7.70;99.90;;;;;;4436459;32;20183;-61
2020/12/08 10:19:25;;;;;;;10.40;1.87;;;7.70;99.90;;;;;;4434242;32;20065;-60
2020/12/08 10:21:57;;;;;;;2.50;1.50;;;7.70;99.90;;;;;;4440172;32;20109;-60
2020/12/08 10:24:23;;;;;;;4.10;2.25;;;7.70;99.90;;;;;;4437515;32;20085;-60
2020/12/08 10:26:49;;;;;;;4.87;2.33;;;7.70;99.90;;;;;;4436767;32;20072;-58
2020/12/08 10:29:15;;;;;;;6.60;2.15;;;7.70;99.90;;;;;;4425299;32;20112;-58
2020/12/08 10:31:41;;;;;;;3.17;2.12;;;7.80;99.90;;;;;;4439563;32;20106;-59
2020/12/08 10:34:06;;;;;;;3.03;1.70;;;7.90;99.90;;;;;;4440793;32;20120;-59
2020/12/08 10:36:32;;;;;;;3.50;2.03;;;7.90;99.90;;;;;;4438526;32;20188;-58
2020/12/08 10:38:57;;;;;;;1.85;1.67;;;8.20;99.90;;;;;;4426348;32;20201;-60
2020/12/08 10:41:24;;;;;;;4.45;2.28;;;8.30;99.90;;;;;;4426161;32;20073;-59
2020/12/08 10:43:50;;;;;;;5.15;2.00;;;8.10;99.90;;;;;;4440688;32;20077;-60
2020/12/08 10:46:15;;;;;;;8.45;2.53;;;7.90;99.90;;;;;;4436955;32;20060;-58
2020/12/08 10:48:41;;;;;;;3.70;1.98;;;8.00;99.90;;;;;;4440594;32;20519;-59
2020/12/08 10:51:07;;;;;;;0.90;0.90;;;8.10;99.90;;;;;;4434710;32;20072;-59
2020/12/08 10:53:33;;;;;;;7.43;2.20;;;8.00;99.90;;;;;;4445897;32;20138;-58
2020/12/08 10:55:58;;;;;;;2.37;2.05;;;8.20;99.90;;;;;;4441683;32;20174;-59
2020/12/08 10:58:25;;;;;;;4.65;2.28;;;8.20;99.90;;;;;;4439477;32;20069;-61
2020/12/08 11:00:50;;;;;;;12.23;3.53;;;8.20;99.90;;;;;;4442324;32;20061;-60
2020/12/08 11:03:15;;;;;;;6.45;2.28;;;8.20;99.90;;;;;;4448234;32;20080;-60
2020/12/08 11:05:41;;;;;;;5.07;2.83;;;8.20;99.90;;;;;;4443157;32;20093;-59
2020/12/08 11:08:07;;;;;;;4.43;2.17;;;8.20;99.90;;;;;;4441719;32;20272;-60
2020/12/08 11:10:33;;;;;;;1.30;1.05;;;8.30;99.90;;;;;;4427255;32;20145;-60
2020/12/08 11:12:59;;;;;;;4.97;2.15;;;8.30;99.90;;;;;;4433450;32;20082;-60
2020/12/08 11:15:25;;;;;;;2.30;1.70;;;8.20;99.90;;;;;;4439375;32;20065;-59
2020/12/08 11:17:50;;;;;;;1.83;1.67;;;8.40;99.90;;;;;;4440765;32;20078;-58
2020/12/08 11:20:16;;;;;;;3.95;1.85;;;8.50;99.90;;;;;;4432605;32;20077;-59
2020/12/08 11:22:42;;;;;;;1.70;1.50;;;8.50;99.90;;;;;;4429234;32;20704;-59
2020/12/08 11:25:08;;;;;;;2.65;1.70;;;8.60;99.90;;;;;;4440635;32;20083;-59
2020/12/08 11:30:08;;;;;;;2.00;1.62;;;9.00;99.90;;;;;;4493455;26;20155;-60
2020/12/08 11:32:34;;;;;;;1.85;1.55;;;9.10;99.90;;;;;;4421828;32;20596;-61
2020/12/08 11:35:00;;;;;;;2.65;1.50;;;9.10;99.90;;;;;;4420507;32;20070;-61
2020/12/08 11:37:27;;;;;;;5.28;2.15;;;9.00;99.90;;;;;;4417658;32;20092;-59
2020/12/08 11:39:53;;;;;;;5.57;2.85;;;9.20;99.90;;;;;;4424235;32;20069;-60
2020/12/08 11:42:18;;;;;;;3.72;2.15;;;9.40;99.90;;;;;;4408724;32;20193;-60
2020/12/08 11:44:46;;;;;;;1.98;1.52;;;9.50;99.90;;;;;;4425005;32;20124;-58
2020/12/08 11:47:12;;;;;;;1.45;1.35;;;9.30;99.90;;;;;;4402711;32;20088;-61
2020/12/08 11:49:37;;;;;;;3.72;1.80;;;9.50;99.90;;;;;;4418980;32;20592;-58
2020/12/08 11:52:05;;;;;;;3.03;1.70;;;9.70;99.90;;;;;;4420240;32;20077;-60
2020/12/08 11:54:31;;;;;;;9.82;2.70;;;9.80;99.90;;;;;;4412537;32;20137;-60
2020/12/08 11:56:56;;;;;;;3.92;2.20;;;9.80;99.90;;;;;;4401585;32;20212;-57
2020/12/08 11:59:22;;;;;;;5.20;2.50;;;9.90;99.90;;;;;;4410215;32;20129;-60
2020/12/08 12:01:47;;;;;;;6.82;3.83;;;10.20;99.90;;;;;;4419413;32;20149;-59
2020/12/08 12:04:13;;;;;;;16.37;2.05;;;10.20;99.90;;;;;;4417259;32;20077;-60
2020/12/08 12:06:38;;;;;;;2.75;1.30;;;10.20;99.90;;;;;;4418432;32;20474;-59
2020/12/08 12:09:04;;;;;;;1.00;0.80;;;10.30;99.90;;;;;;4416874;32;20152;-60
2020/12/08 12:11:30;;;;;;;17.20;2.25;;;10.50;99.90;;;;;;4418897;32;20156;-60
2020/12/08 12:13:55;;;;;;;4.22;1.58;;;10.50;99.90;;;;;;4414633;32;20085;-59
2020/12/08 12:16:23;;;;;;;1.87;1.55;;;10.70;99.90;;;;;;4419682;32;20065;-58
2020/12/08 12:18:48;;;;;;;4.47;1.98;;;10.70;99.90;;;;;;4416881;32;20109;-60
2020/12/08 12:21:14;;;;;;;1.73;1.30;;;10.80;99.90;;;;;;4424149;32;20061;-60
2020/12/08 12:23:41;;;;;;;1.70;1.58;;;10.70;99.90;;;;;;4418557;32;20375;-58
2020/12/08 12:26:06;;;;;;;2.92;2.00;;;10.70;99.90;;;;;;4417174;32;20069;-57
2020/12/08 12:28:34;;;;;;;6.12;2.80;;;10.70;99.90;;;;;;4419688;32;20113;-59
2020/12/08 12:31:01;;;;;;;1.27;1.02;;;10.90;99.90;;;;;;4405668;32;20598;-61
2020/12/08 12:33:26;;;;;;;3.62;1.12;;;10.90;99.90;;;;;;4407891;32;20085;-60
2020/12/08 12:35:52;;;;;;;12.68;2.08;;;10.90;99.90;;;;;;4407501;32;20137;-60
2020/12/08 12:38:17;;;;;;;2.30;1.70;;;11.00;99.90;;;;;;4422826;32;20076;-59
2020/12/08 12:40:43;;;;;;;3.70;1.48;;;10.70;99.90;;;;;;4420808;32;20074;-59
2020/12/08 12:43:08;;;;;;;2.30;1.35;;;10.80;99.90;;;;;;4419188;32;20123;-59
2020/12/08 12:45:34;;;;;;;4.30;2.53;;;10.70;99.90;;;;;;4421718;32;20132;-60
2020/12/08 12:47:59;;;;;;;4.90;1.90;;;10.70;99.90;;;;;;4419858;32;20069;-61
2020/12/08 12:50:24;;;;;;;1.60;1.50;;;10.70;99.90;;;;;;4418181;32;20062;-61
2020/12/08 12:52:50;;;;;;;2.58;1.40;;;10.80;99.90;;;;;;4418439;32;20131;-60